sensor_id;sensor_type;location;lat;lon;timestamp;temperature;humidity
25688;DHT22;17407;51.120;3.702;2024-01-15T00:01:17;4.20;99.90
25688;DHT22;17407;51.120;3.702;2024-01-15T00:03:43;4.40;99.90
25688;DHT22;17407;51.120;3.702;2024-01-15T00:06:08;4.40;99.90
25688;DHT22;17407;51.120;3.702;2024-01-15T00:08:34;4.30;99.90
25688;DHT22;17407;51.120;3.702;2024-01-15T00:11:00;4.50;99.90
25688;DHT22;17407;51.120;3.702;2024-01-15T00:13:26;4.50;99.90
25688;DHT22;17407;51.120;3.702;2024-01-15T00:15:52;4.70;99.90
25688;DHT22;17407;51.120;3.702;2024-01-15T00:18:18;4.60;99.90
25688;DHT22;17407;51.120;3.702;2024-01-15T00:20:44;4.90;99.90
25688;DHT22;17407;51.120;3.702;2024-01-15T00:23:10;4.60;99.90
25688;DHT22;17407;51.120;3.702;2024-01-15T00:25:50;4.80;99.90
25688;DHT22;17407;51.120;3.702;2024-01-15T00:28:38;4.70;99.90
25688;DHT22;17407;51.120;3.702;2024-01-15T00:36:33;4.90;99.90
25688;DHT22;17407;51.120;3.702;2024-01-15T00:38:59;4.90;99.90
25688;DHT22;17407;51.120;3.702;2024-01-15T00:41:25;4.80;99.90
25688;DHT22;17407;51.120;3.702;2024-01-15T00:43:53;4.90;99.90
25688;DHT22;17407;51.120;3.702;2024-01-15T00:46:19;5.00;99.90
25688;DHT22;17407;51.120;3.702;2024-01-15T00:48:44;4.80;99.90
25688;DHT22;17407;51.120;3.702;2024-01-15T00:51:10;4.80;99.90
25688;DHT22;17407;51.120;3.702;2024-01-15T00:53:36;4.90;99.90
25688;DHT22;17407;51.120;3.702;2024-01-15T00:56:02;4.70;99.90
25688;DHT22;17407;51.120;3.702;2024-01-15T00:58:28;4.90;99.90
25688;DHT22;17407;51.120;3.702;2024-01-15T01:00:54;4.70;99.90
25688;DHT22;17407;51.120;3.702;2024-01-15T01:03:20;4.70;99.90
25688;DHT22;17407;51.120;3.702;2024-01-15T01:05:48;4.70;99.90
25688;DHT22;17407;51.120;3.702;2024-01-15T01:08:15;4.60;99.90
25688;DHT22;17407;51.120;3.702;2024-01-15T01:10:41;4.60;99.90
25688;DHT22;17407;51.120;3.702;2024-01-15T01:13:08;4.60;99.90
25688;DHT22;17407;51.120;3.702;2024-01-15T01:15:34;4.80;99.90
25688;DHT22;17407;51.120;3.702;2024-01-15T01:18:00;4.60;99.90
25688;DHT22;17407;51.120;3.702;2024-01-15T01:20:25;4.60;99.90
25688;DHT22;17407;51.120;3.702;2024-01-15T01:22:51;4.70;99.90
25688;DHT22;17407;51.120;3.702;2024-01-15T01:25:42;4.50;99.90
25688;DHT22;17407;51.120;3.702;2024-01-15T01:28:08;4.80;99.90
25688;DHT22;17407;51.120;3.702;2024-01-15T01:30:34;4.70;99.90
25688;DHT22;17407;51.120;3.702;2024-01-15T01:33:00;4.50;99.90
25688;DHT22;17407;51.120;3.702;2024-01-15T01:35:26;4.60;99.90
25688;DHT22;17407;51.120;3.702;2024-01-15T01:37:59;4.70;99.90
25688;DHT22;17407;51.120;3.702;2024-01-15T01:41:11;4.50;99.90
25688;DHT22;17407;51.120;3.702;2024-01-15T01:47:16;4.60;99.90
25688;DHT22;17407;51.120;3.702;2024-01-15T01:52:38;4.50;99.90
25688;DHT22;17407;51.120;3.702;2024-01-15T01:55:06;4.60;99.90
25688;DHT22;17407;51.120;3.702;2024-01-15T01:57:34;4.40;99.90
25688;DHT22;17407;51.120;3.702;2024-01-15T02:00:02;4.50;99.90
25688;DHT22;17407;51.120;3.702;2024-01-15T02:02:29;4.50;99.90
25688;DHT22;17407;51.120;3.702;2024-01-15T02:04:55;4.50;99.90
25688;DHT22;17407;51.120;3.702;2024-01-15T02:07:21;4.50;99.90
25688;DHT22;17407;51.120;3.702;2024-01-15T02:09:49;4.50;99.90
25688;DHT22;17407;51.120;3.702;2024-01-15T02:12:15;4.50;99.90
25688;DHT22;17407;51.120;3.702;2024-01-15T02:14:54;4.50;99.90
25688;DHT22;17407;51.120;3.702;2024-01-15T02:18:13;4.40;99.90
25688;DHT22;17407;51.120;3.702;2024-01-15T02:20:38;4.30;99.90
25688;DHT22;17407;51.120;3.702;2024-01-15T02:23:12;4.60;99.90
25688;DHT22;17407;51.120;3.702;2024-01-15T02:25:45;4.60;99.90
25688;DHT22;17407;51.120;3.702;2024-01-15T02:28:13;4.40;99.90
25688;DHT22;17407;51.120;3.702;2024-01-15T02:30:40;4.40;99.90
25688;DHT22;17407;51.120;3.702;2024-01-15T02:33:07;4.40;99.90
25688;DHT22;17407;51.120;3.702;2024-01-15T02:35:33;4.40;99.90
25688;DHT22;17407;51.120;3.702;2024-01-15T02:46:07;4.40;99.90
25688;DHT22;17407;51.120;3.702;2024-01-15T02:48:38;4.40;99.90
25688;DHT22;17407;51.120;3.702;2024-01-15T02:51:04;4.40;99.90
25688;DHT22;17407;51.120;3.702;2024-01-15T02:53:30;4.50;99.90
25688;DHT22;17407;51.120;3.702;2024-01-15T02:55:56;4.20;99.90
25688;DHT22;17407;51.120;3.702;2024-01-15T02:58:22;4.40;99.90
25688;DHT22;17407;51.120;3.702;2024-01-15T03:00:48;4.50;99.90
25688;DHT22;17407;51.120;3.702;2024-01-15T03:03:14;4.50;99.90
25688;DHT22;17407;51.120;3.702;2024-01-15T06:07:56;3.70;99.90
25688;DHT22;17407;51.120;3.702;2024-01-15T06:10:22;3.70;99.90
25688;DHT22;17407;51.120;3.702;2024-01-15T06:13:24;3.70;99.90
25688;DHT22;17407;51.120;3.702;2024-01-15T06:15:50;4.00;99.90
25688;DHT22;17407;51.120;3.702;2024-01-15T06:18:15;3.90;99.90
25688;DHT22;17407;51.120;3.702;2024-01-15T06:20:41;3.70;99.90
25688;DHT22;17407;51.120;3.702;2024-01-15T06:23:07;3.70;99.90
25688;DHT22;17407;51.120;3.702;2024-01-15T06:25:32;3.90;99.90
25688;DHT22;17407;51.120;3.702;2024-01-15T06:28:00;3.70;99.90
25688;DHT22;17407;51.120;3.702;2024-01-15T06:30:25;3.80;99.90
25688;DHT22;17407;51.120;3.702;2024-01-15T06:35:27;3.80;99.90
25688;DHT22;17407;51.120;3.702;2024-01-15T06:37:52;3.80;99.90
25688;DHT22;17407;51.120;3.702;2024-01-15T06:40:18;3.80;99.90
25688;DHT22;17407;51.120;3.702;2024-01-15T06:42:44;3.80;99.90
25688;DHT22;17407;51.120;3.702;2024-01-15T06:45:10;3.90;99.90
25688;DHT22;17407;51.120;3.702;2024-01-15T06:47:37;3.80;99.90
25688;DHT22;17407;51.120;3.702;2024-01-15T06:50:03;4.00;99.90
25688;DHT22;17407;51.120;3.702;2024-01-15T06:52:30;3.90;99.90
25688;DHT22;17407;51.120;3.702;2024-01-15T06:54:55;3.90;99.90
25688;DHT22;17407;51.120;3.702;2024-01-15T06:57:21;3.80;99.90
25688;DHT22;17407;51.120;3.702;2024-01-15T06:59:49;4.00;99.90
25688;DHT22;17407;51.120;3.702;2024-01-15T07:02:14;3.90;99.90
25688;DHT22;17407;51.120;3.702;2024-01-15T07:04:41;3.90;99.90
25688;DHT22;17407;51.120;3.702;2024-01-15T07:07:07;3.90;99.90
25688;DHT22;17407;51.120;3.702;2024-01-15T07:09:32;3.90;99.90
25688;DHT22;17407;51.120;3.702;2024-01-15T07:11:58;3.90;99.90
25688;DHT22;17407;51.120;3.702;2024-01-15T07:14:25;3.80;99.90
25688;DHT22;17407;51.120;3.702;2024-01-15T07:16:50;3.70;99.90
25688;DHT22;17407;51.120;3.702;2024-01-15T07:19:16;3.70;99.90
25688;DHT22;17407;51.120;3.702;2024-01-15T07:21:42;3.70;99.90
25688;DHT22;17407;51.120;3.702;2024-01-15T07:24:08;3.90;99.90
25688;DHT22;17407;51.120;3.702;2024-01-15T07:26:36;3.70;99.90
25688;DHT22;17407;51.120;3.702;2024-01-15T07:29:01;3.60;99.90
25688;DHT22;17407;51.120;3.702;2024-01-15T07:31:28;3.60;99.90
25688;DHT22;17407;51.120;3.702;2024-01-15T07:33:54;3.70;99.90
25688;DHT22;17407;51.120;3.702;2024-01-15T07:36:20;3.60;99.90
25688;DHT22;17407;51.120;3.702;2024-01-15T07:38:46;3.60;99.90
25688;DHT22;17407;51.120;3.702;2024-01-15T07:41:13;3.60;99.90
25688;DHT22;17407;51.120;3.702;2024-01-15T07:43:39;3.80;99.90
25688;DHT22;17407;51.120;3.702;2024-01-15T07:46:05;3.70;99.90
25688;DHT22;17407;51.120;3.702;2024-01-15T07:48:32;3.60;99.90
25688;DHT22;17407;51.120;3.702;2024-01-15T07:50:58;3.60;99.90
25688;DHT22;17407;51.120;3.702;2024-01-15T07:53:24;3.60;99.90
25688;DHT22;17407;51.120;3.702;2024-01-15T07:55:49;3.60;99.90
25688;DHT22;17407;51.120;3.702;2024-01-15T07:58:15;3.60;99.90
25688;DHT22;17407;51.120;3.702;2024-01-15T08:00:41;3.60;99.90
25688;DHT22;17407;51.120;3.702;2024-01-15T08:03:06;3.70;99.90
25688;DHT22;17407;51.120;3.702;2024-01-15T08:05:32;3.50;99.90
25688;DHT22;17407;51.120;3.702;2024-01-15T08:07:58;3.60;99.90
25688;DHT22;17407;51.120;3.702;2024-01-15T08:10:23;3.60;99.90
25688;DHT22;17407;51.120;3.702;2024-01-15T08:12:49;3.70;99.90
25688;DHT22;17407;51.120;3.702;2024-01-15T08:15:15;3.80;99.90
25688;DHT22;17407;51.120;3.702;2024-01-15T08:17:41;3.60;99.90
25688;DHT22;17407;51.120;3.702;2024-01-15T08:20:07;3.70;99.90
25688;DHT22;17407;51.120;3.702;2024-01-15T08:22:32;3.60;99.90
25688;DHT22;17407;51.120;3.702;2024-01-15T08:24:58;3.70;99.90
25688;DHT22;17407;51.120;3.702;2024-01-15T08:27:24;3.60;99.90
25688;DHT22;17407;51.120;3.702;2024-01-15T08:29:49;3.60;99.90
25688;DHT22;17407;51.120;3.702;2024-01-15T08:32:15;3.60;99.90
25688;DHT22;17407;51.120;3.702;2024-01-15T08:34:41;3.80;99.90
25688;DHT22;17407;51.120;3.702;2024-01-15T08:37:08;3.60;99.90
25688;DHT22;17407;51.120;3.702;2024-01-15T08:39:33;3.70;99.90
25688;DHT22;17407;51.120;3.702;2024-01-15T08:41:59;3.60;99.90
25688;DHT22;17407;51.120;3.702;2024-01-15T08:44:25;3.70;99.90
25688;DHT22;17407;51.120;3.702;2024-01-15T08:46:50;3.80;99.90
25688;DHT22;17407;51.120;3.702;2024-01-15T08:49:16;4.00;99.90
25688;DHT22;17407;51.120;3.702;2024-01-15T08:51:42;3.80;99.90
25688;DHT22;17407;51.120;3.702;2024-01-15T08:54:08;4.00;99.90
25688;DHT22;17407;51.120;3.702;2024-01-15T08:56:34;3.90;99.90
25688;DHT22;17407;51.120;3.702;2024-01-15T08:58:59;4.00;99.90
25688;DHT22;17407;51.120;3.702;2024-01-15T09:01:25;4.00;99.90
25688;DHT22;17407;51.120;3.702;2024-01-15T09:03:51;4.20;99.90
25688;DHT22;17407;51.120;3.702;2024-01-15T09:06:17;4.10;99.90
25688;DHT22;17407;51.120;3.702;2024-01-15T09:08:42;4.20;99.90
25688;DHT22;17407;51.120;3.702;2024-01-15T09:11:08;4.20;99.90
25688;DHT22;17407;51.120;3.702;2024-01-15T09:13:34;4.30;99.90
25688;DHT22;17407;51.120;3.702;2024-01-15T09:15:59;4.40;99.90
25688;DHT22;17407;51.120;3.702;2024-01-15T09:18:25;4.60;99.90
25688;DHT22;17407;51.120;3.702;2024-01-15T09:20:51;4.80;99.90
25688;DHT22;17407;51.120;3.702;2024-01-15T09:23:17;5.10;99.90
25688;DHT22;17407;51.120;3.702;2024-01-15T09:25:42;5.30;99.90
25688;DHT22;17407;51.120;3.702;2024-01-15T09:28:08;5.40;99.90
25688;DHT22;17407;51.120;3.702;2024-01-15T09:30:34;5.60;99.90
25688;DHT22;17407;51.120;3.702;2024-01-15T09:33:00;5.80;99.90
25688;DHT22;17407;51.120;3.702;2024-01-15T09:35:26;5.90;99.90
25688;DHT22;17407;51.120;3.702;2024-01-15T09:37:51;5.80;99.90
25688;DHT22;17407;51.120;3.702;2024-01-15T09:40:17;5.80;99.90
25688;DHT22;17407;51.120;3.702;2024-01-15T09:42:46;5.70;99.90
25688;DHT22;17407;51.120;3.702;2024-01-15T09:45:12;5.60;99.90
25688;DHT22;17407;51.120;3.702;2024-01-15T09:47:38;5.60;99.90
25688;DHT22;17407;51.120;3.702;2024-01-15T09:50:06;5.60;99.90
25688;DHT22;17407;51.120;3.702;2024-01-15T09:52:32;5.60;99.90
25688;DHT22;17407;51.120;3.702;2024-01-15T09:55:01;5.60;99.90
25688;DHT22;17407;51.120;3.702;2024-01-15T09:57:27;5.70;99.90
25688;DHT22;17407;51.120;3.702;2024-01-15T09:59:53;5.60;99.90
25688;DHT22;17407;51.120;3.702;2024-01-15T10:02:20;5.50;99.90
25688;DHT22;17407;51.120;3.702;2024-01-15T10:04:46;5.40;99.90
25688;DHT22;17407;51.120;3.702;2024-01-15T10:07:15;5.30;99.90
25688;DHT22;17407;51.120;3.702;2024-01-15T10:09:45;5.30;99.90
25688;DHT22;17407;51.120;3.702;2024-01-15T10:12:12;5.30;99.90
25688;DHT22;17407;51.120;3.702;2024-01-15T10:14:37;5.20;99.90
25688;DHT22;17407;51.120;3.702;2024-01-15T10:17:14;5.20;99.90
25688;DHT22;17407;51.120;3.702;2024-01-15T10:19:40;5.30;99.90
25688;DHT22;17407;51.120;3.702;2024-01-15T10:22:08;5.30;99.90
25688;DHT22;17407;51.120;3.702;2024-01-15T10:24:38;5.20;99.90
25688;DHT22;17407;51.120;3.702;2024-01-15T10:27:09;5.20;99.90
25688;DHT22;17407;51.120;3.702;2024-01-15T10:29:36;5.20;99.90
25688;DHT22;17407;51.120;3.702;2024-01-15T10:32:03;5.30;99.90
25688;DHT22;17407;51.120;3.702;2024-01-15T10:34:31;5.30;99.90
25688;DHT22;17407;51.120;3.702;2024-01-15T10:36:57;5.20;99.90
25688;DHT22;17407;51.120;3.702;2024-01-15T10:39:23;5.20;99.90
25688;DHT22;17407;51.120;3.702;2024-01-15T10:41:49;5.20;99.90
25688;DHT22;17407;51.120;3.702;2024-01-15T10:44:16;5.30;99.90
25688;DHT22;17407;51.120;3.702;2024-01-15T10:46:43;5.40;99.90
25688;DHT22;17407;51.120;3.702;2024-01-15T10:49:11;5.20;99.90
25688;DHT22;17407;51.120;3.702;2024-01-15T10:51:38;5.10;99.90
25688;DHT22;17407;51.120;3.702;2024-01-15T10:54:04;5.20;99.90
25688;DHT22;17407;51.120;3.702;2024-01-15T10:56:32;5.10;99.90
25688;DHT22;17407;51.120;3.702;2024-01-15T10:59:00;5.10;99.90
25688;DHT22;17407;51.120;3.702;2024-01-15T11:01:26;5.10;99.90
25688;DHT22;17407;51.120;3.702;2024-01-15T11:03:54;5.20;99.90
25688;DHT22;17407;51.120;3.702;2024-01-15T11:06:24;5.20;99.90
25688;DHT22;17407;51.120;3.702;2024-01-15T11:08:51;5.20;99.90
25688;DHT22;17407;51.120;3.702;2024-01-15T11:11:17;5.20;99.90
25688;DHT22;17407;51.120;3.702;2024-01-15T11:13:48;5.20;99.90
25688;DHT22;17407;51.120;3.702;2024-01-15T11:16:17;5.20;99.90
25688;DHT22;17407;51.120;3.702;2024-01-15T11:19:02;5.30;99.90
25688;DHT22;17407;51.120;3.702;2024-01-15T11:21:28;5.70;99.90
25688;DHT22;17407;51.120;3.702;2024-01-15T11:55:26;5.70;99.90
25688;DHT22;17407;51.120;3.702;2024-01-15T11:57:54;5.90;99.90
25688;DHT22;17407;51.120;3.702;2024-01-15T12:00:21;5.80;99.90
25688;DHT22;17407;51.120;3.702;2024-01-15T12:02:48;5.90;99.90
25688;DHT22;17407;51.120;3.702;2024-01-15T12:05:19;6.00;99.90
25688;DHT22;17407;51.120;3.702;2024-01-15T12:07:47;6.00;99.90
25688;DHT22;17407;51.120;3.702;2024-01-15T12:10:21;5.70;99.90
25688;DHT22;17407;51.120;3.702;2024-01-15T12:16:11;5.70;99.90
25688;DHT22;17407;51.120;3.702;2024-01-15T12:18:41;5.80;99.90
25688;DHT22;17407;51.120;3.702;2024-01-15T12:24:01;5.60;99.90
25688;DHT22;17407;51.120;3.702;2024-01-15T12:26:31;5.70;99.90
25688;DHT22;17407;51.120;3.702;2024-01-15T12:29:01;5.80;99.90
25688;DHT22;17407;51.120;3.702;2024-01-15T12:31:28;5.70;99.90
25688;DHT22;17407;51.120;3.702;2024-01-15T12:33:56;5.80;99.90
25688;DHT22;17407;51.120;3.702;2024-01-15T12:36:22;5.90;99.90
25688;DHT22;17407;51.120;3.702;2024-01-15T12:38:48;6.00;99.90
25688;DHT22;17407;51.120;3.702;2024-01-15T12:41:15;6.00;99.90
25688;DHT22;17407;51.120;3.702;2024-01-15T12:43:40;6.20;99.90
25688;DHT22;17407;51.120;3.702;2024-01-15T12:46:07;6.20;99.90
25688;DHT22;17407;51.120;3.702;2024-01-15T12:48:33;6.50;99.90
25688;DHT22;17407;51.120;3.702;2024-01-15T12:51:00;6.60;99.90
25688;DHT22;17407;51.120;3.702;2024-01-15T12:53:26;6.50;99.90
25688;DHT22;17407;51.120;3.702;2024-01-15T13:11:53;6.90;99.90
25688;DHT22;17407;51.120;3.702;2024-01-15T13:17:05;7.10;99.90
25688;DHT22;17407;51.120;3.702;2024-01-15T13:19:36;7.30;99.90
25688;DHT22;17407;51.120;3.702;2024-01-15T13:22:21;7.30;99.90
25688;DHT22;17407;51.120;3.702;2024-01-15T13:24:47;7.10;99.90
25688;DHT22;17407;51.120;3.702;2024-01-15T13:27:13;6.90;99.90
25688;DHT22;17407;51.120;3.702;2024-01-15T13:29:38;6.50;99.90
25688;DHT22;17407;51.120;3.702;2024-01-15T13:32:04;6.40;99.90
25688;DHT22;17407;51.120;3.702;2024-01-15T13:34:30;6.70;99.90
25688;DHT22;17407;51.120;3.702;2024-01-15T13:36:56;7.30;99.90
25688;DHT22;17407;51.120;3.702;2024-01-15T13:39:22;7.80;99.90
25688;DHT22;17407;51.120;3.702;2024-01-15T13:41:49;8.00;99.90
25688;DHT22;17407;51.120;3.702;2024-01-15T13:44:15;8.20;99.90
25688;DHT22;17407;51.120;3.702;2024-01-15T13:46:40;8.40;99.90
25688;DHT22;17407;51.120;3.702;2024-01-15T13:49:07;8.50;99.90
25688;DHT22;17407;51.120;3.702;2024-01-15T13:51:34;8.30;99.90
25688;DHT22;17407;51.120;3.702;2024-01-15T13:54:01;8.00;99.90
25688;DHT22;17407;51.120;3.702;2024-01-15T13:56:26;8.00;99.90
25688;DHT22;17407;51.120;3.702;2024-01-15T13:58:56;7.80;99.90
25688;DHT22;17407;51.120;3.702;2024-01-15T14:01:23;7.70;99.90
25688;DHT22;17407;51.120;3.702;2024-01-15T14:03:49;7.50;99.90
25688;DHT22;17407;51.120;3.702;2024-01-15T14:06:15;7.50;99.90
25688;DHT22;17407;51.120;3.702;2024-01-15T14:08:40;7.50;99.90
25688;DHT22;17407;51.120;3.702;2024-01-15T14:11:06;7.40;99.90
25688;DHT22;17407;51.120;3.702;2024-01-15T14:13:33;7.20;99.90
25688;DHT22;17407;51.120;3.702;2024-01-15T14:15:58;6.90;99.90
25688;DHT22;17407;51.120;3.702;2024-01-15T14:18:26;6.70;99.90
25688;DHT22;17407;51.120;3.702;2024-01-15T14:20:51;6.60;99.90
25688;DHT22;17407;51.120;3.702;2024-01-15T14:23:19;6.40;99.90
25688;DHT22;17407;51.120;3.702;2024-01-15T14:25:45;6.20;99.90
25688;DHT22;17407;51.120;3.702;2024-01-15T14:28:10;6.20;99.90
25688;DHT22;17407;51.120;3.702;2024-01-15T14:30:36;6.10;99.90
25688;DHT22;17407;51.120;3.702;2024-01-15T14:33:02;5.90;99.90
25688;DHT22;17407;51.120;3.702;2024-01-15T14:35:27;6.00;99.90
25688;DHT22;17407;51.120;3.702;2024-01-15T14:37:53;6.00;99.90
25688;DHT22;17407;51.120;3.702;2024-01-15T14:40:19;6.20;99.90
25688;DHT22;17407;51.120;3.702;2024-01-15T14:42:44;6.30;99.90
25688;DHT22;17407;51.120;3.702;2024-01-15T14:45:10;6.20;99.90
25688;DHT22;17407;51.120;3.702;2024-01-15T14:47:39;6.30;99.90
25688;DHT22;17407;51.120;3.702;2024-01-15T14:50:08;6.30;99.90
25688;DHT22;17407;51.120;3.702;2024-01-15T14:52:36;6.00;99.90
25688;DHT22;17407;51.120;3.702;2024-01-15T14:55:02;5.70;99.90
25688;DHT22;17407;51.120;3.702;2024-01-15T14:57:28;5.50;99.90
25688;DHT22;17407;51.120;3.702;2024-01-15T14:59:53;5.30;99.90
25688;DHT22;17407;51.120;3.702;2024-01-15T15:02:19;5.40;99.90
25688;DHT22;17407;51.120;3.702;2024-01-15T15:04:45;5.30;99.90
25688;DHT22;17407;51.120;3.702;2024-01-15T15:07:10;5.40;99.90
25688;DHT22;17407;51.120;3.702;2024-01-15T15:09:36;5.30;99.90
25688;DHT22;17407;51.120;3.702;2024-01-15T15:12:06;5.20;99.90
25688;DHT22;17407;51.120;3.702;2024-01-15T15:14:32;5.10;99.90
25688;DHT22;17407;51.120;3.702;2024-01-15T15:17:06;5.20;99.90
25688;DHT22;17407;51.120;3.702;2024-01-15T15:19:32;5.30;99.90
25688;DHT22;17407;51.120;3.702;2024-01-15T15:21:58;5.20;99.90
25688;DHT22;17407;51.120;3.702;2024-01-15T15:24:24;5.10;99.90
25688;DHT22;17407;51.120;3.702;2024-01-15T15:26:49;5.10;99.90
25688;DHT22;17407;51.120;3.702;2024-01-15T15:29:15;4.90;99.90
25688;DHT22;17407;51.120;3.702;2024-01-15T15:31:42;4.80;99.90
25688;DHT22;17407;51.120;3.702;2024-01-15T15:34:08;4.70;99.90
25688;DHT22;17407;51.120;3.702;2024-01-15T15:36:33;4.70;99.90
25688;DHT22;17407;51.120;3.702;2024-01-15T15:38:59;4.60;99.90
25688;DHT22;17407;51.120;3.702;2024-01-15T15:41:25;4.60;99.90
25688;DHT22;17407;51.120;3.702;2024-01-15T15:43:51;4.70;99.90
25688;DHT22;17407;51.120;3.702;2024-01-15T15:46:17;4.70;99.90
25688;DHT22;17407;51.120;3.702;2024-01-15T15:48:42;4.70;99.90
25688;DHT22;17407;51.120;3.702;2024-01-15T15:51:09;4.70;99.90
25688;DHT22;17407;51.120;3.702;2024-01-15T15:53:34;4.90;99.90
25688;DHT22;17407;51.120;3.702;2024-01-15T15:56:00;4.70;99.90
25688;DHT22;17407;51.120;3.702;2024-01-15T15:58:26;4.80;99.90
25688;DHT22;17407;51.120;3.702;2024-01-15T16:00:52;4.70;99.90
25688;DHT22;17407;51.120;3.702;2024-01-15T16:03:18;4.90;99.90
25688;DHT22;17407;51.120;3.702;2024-01-15T16:05:44;4.70;99.90
25688;DHT22;17407;51.120;3.702;2024-01-15T16:08:09;4.80;99.90
25688;DHT22;17407;51.120;3.702;2024-01-15T16:10:35;4.70;99.90
25688;DHT22;17407;51.120;3.702;2024-01-15T16:13:01;4.90;99.90
25688;DHT22;17407;51.120;3.702;2024-01-15T16:15:26;4.80;99.90
25688;DHT22;17407;51.120;3.702;2024-01-15T16:17:53;4.80;99.90
25688;DHT22;17407;51.120;3.702;2024-01-15T16:20:19;4.80;99.90
25688;DHT22;17407;51.120;3.702;2024-01-15T16:22:46;4.70;99.90
25688;DHT22;17407;51.120;3.702;2024-01-15T16:25:11;4.60;99.90
25688;DHT22;17407;51.120;3.702;2024-01-15T16:27:37;4.60;99.90
25688;DHT22;17407;51.120;3.702;2024-01-15T16:30:03;4.60;99.90
25688;DHT22;17407;51.120;3.702;2024-01-15T16:32:29;4.50;99.90
25688;DHT22;17407;51.120;3.702;2024-01-15T16:34:55;4.70;99.90
25688;DHT22;17407;51.120;3.702;2024-01-15T16:37:21;4.50;99.90
25688;DHT22;17407;51.120;3.702;2024-01-15T16:39:46;4.50;99.90
25688;DHT22;17407;51.120;3.702;2024-01-15T16:42:12;4.40;99.90
25688;DHT22;17407;51.120;3.702;2024-01-15T16:44:38;4.40;99.90
25688;DHT22;17407;51.120;3.702;2024-01-15T16:47:04;4.60;99.90
25688;DHT22;17407;51.120;3.702;2024-01-15T16:49:30;4.40;99.90
25688;DHT22;17407;51.120;3.702;2024-01-15T16:51:56;4.30;99.90
25688;DHT22;17407;51.120;3.702;2024-01-15T16:54:22;4.40;99.90
25688;DHT22;17407;51.120;3.702;2024-01-15T16:59:27;4.40;99.90
25688;DHT22;17407;51.120;3.702;2024-01-15T17:01:54;4.40;99.90
25688;DHT22;17407;51.120;3.702;2024-01-15T17:04:20;4.50;99.90
25688;DHT22;17407;51.120;3.702;2024-01-15T17:06:46;4.40;99.90
25688;DHT22;17407;51.120;3.702;2024-01-15T17:09:11;4.40;99.90
25688;DHT22;17407;51.120;3.702;2024-01-15T17:11:37;4.50;99.90
25688;DHT22;17407;51.120;3.702;2024-01-15T17:14:03;4.60;99.90
25688;DHT22;17407;51.120;3.702;2024-01-15T17:16:29;4.50;99.90
25688;DHT22;17407;51.120;3.702;2024-01-15T17:18:54;4.40;99.90
25688;DHT22;17407;51.120;3.702;2024-01-15T17:21:20;4.40;99.90
25688;DHT22;17407;51.120;3.702;2024-01-15T17:23:46;4.40;99.90
25688;DHT22;17407;51.120;3.702;2024-01-15T17:26:12;4.40;99.90
25688;DHT22;17407;51.120;3.702;2024-01-15T17:28:38;4.40;99.90
25688;DHT22;17407;51.120;3.702;2024-01-15T17:31:04;4.40;99.90
25688;DHT22;17407;51.120;3.702;2024-01-15T17:33:30;4.40;99.90
25688;DHT22;17407;51.120;3.702;2024-01-15T17:35:56;4.40;99.90
25688;DHT22;17407;51.120;3.702;2024-01-15T17:38:23;4.50;99.90
25688;DHT22;17407;51.120;3.702;2024-01-15T17:40:49;4.50;99.90
25688;DHT22;17407;51.120;3.702;2024-01-15T17:43:15;4.40;99.90
25688;DHT22;17407;51.120;3.702;2024-01-15T17:45:41;4.30;99.90
25688;DHT22;17407;51.120;3.702;2024-01-15T17:48:07;4.40;99.90
25688;DHT22;17407;51.120;3.702;2024-01-15T17:50:34;4.40;99.90
25688;DHT22;17407;51.120;3.702;2024-01-15T17:53:00;4.40;99.90
25688;DHT22;17407;51.120;3.702;2024-01-15T17:55:26;4.40;99.90
25688;DHT22;17407;51.120;3.702;2024-01-15T17:57:52;4.50;99.90
25688;DHT22;17407;51.120;3.702;2024-01-15T18:00:18;4.40;99.90
25688;DHT22;17407;51.120;3.702;2024-01-15T18:02:45;4.40;99.90
25688;DHT22;17407;51.120;3.702;2024-01-15T18:05:11;4.40;99.90
25688;DHT22;17407;51.120;3.702;2024-01-15T18:07:37;4.60;99.90
25688;DHT22;17407;51.120;3.702;2024-01-15T18:10:04;4.40;99.90
25688;DHT22;17407;51.120;3.702;2024-01-15T18:12:30;4.40;99.90
25688;DHT22;17407;51.120;3.702;2024-01-15T18:14:57;4.40;99.90
25688;DHT22;17407;51.120;3.702;2024-01-15T18:17:23;4.40;99.90
25688;DHT22;17407;51.120;3.702;2024-01-15T18:19:49;4.60;99.90
25688;DHT22;17407;51.120;3.702;2024-01-15T18:22:15;4.40;99.90
25688;DHT22;17407;51.120;3.702;2024-01-15T18:24:41;4.40;99.90
25688;DHT22;17407;51.120;3.702;2024-01-15T18:27:06;4.40;99.90
25688;DHT22;17407;51.120;3.702;2024-01-15T18:29:33;4.50;99.90
25688;DHT22;17407;51.120;3.702;2024-01-15T18:31:59;4.40;99.90
25688;DHT22;17407;51.120;3.702;2024-01-15T18:34:25;4.40;99.90
25688;DHT22;17407;51.120;3.702;2024-01-15T18:36:51;4.60;99.90
25688;DHT22;17407;51.120;3.702;2024-01-15T18:39:17;4.40;99.90
25688;DHT22;17407;51.120;3.702;2024-01-15T18:41:46;4.40;99.90
25688;DHT22;17407;51.120;3.702;2024-01-15T18:44:11;4.60;99.90
25688;DHT22;17407;51.120;3.702;2024-01-15T18:46:38;4.50;99.90
25688;DHT22;17407;51.120;3.702;2024-01-15T18:49:06;4.50;99.90
25688;DHT22;17407;51.120;3.702;2024-01-15T18:51:32;4.50;99.90
25688;DHT22;17407;51.120;3.702;2024-01-15T18:53:58;4.30;99.90
25688;DHT22;17407;51.120;3.702;2024-01-15T18:56:24;4.40;99.90
25688;DHT22;17407;51.120;3.702;2024-01-15T18:58:49;4.40;99.90
25688;DHT22;17407;51.120;3.702;2024-01-15T19:01:31;4.40;99.90
25688;DHT22;17407;51.120;3.702;2024-01-15T19:04:00;4.50;99.90
25688;DHT22;17407;51.120;3.702;2024-01-15T19:06:26;4.50;99.90
25688;DHT22;17407;51.120;3.702;2024-01-15T19:08:55;4.40;99.90
25688;DHT22;17407;51.120;3.702;2024-01-15T19:11:20;4.40;99.90
25688;DHT22;17407;51.120;3.702;2024-01-15T19:13:48;4.40;99.90
25688;DHT22;17407;51.120;3.702;2024-01-15T19:16:14;4.40;99.90
25688;DHT22;17407;51.120;3.702;2024-01-15T19:18:41;4.50;99.90
25688;DHT22;17407;51.120;3.702;2024-01-15T19:21:07;4.40;99.90
25688;DHT22;17407;51.120;3.702;2024-01-15T19:23:32;4.50;99.90
25688;DHT22;17407;51.120;3.702;2024-01-15T19:25:58;4.60;99.90
25688;DHT22;17407;51.120;3.702;2024-01-15T19:28:24;4.50;99.90
25688;DHT22;17407;51.120;3.702;2024-01-15T19:30:50;4.50;99.90
25688;DHT22;17407;51.120;3.702;2024-01-15T19:33:16;4.50;99.90
25688;DHT22;17407;51.120;3.702;2024-01-15T19:35:43;4.60;99.90
25688;DHT22;17407;51.120;3.702;2024-01-15T19:38:08;4.50;99.90
25688;DHT22;17407;51.120;3.702;2024-01-15T19:40:35;4.40;99.90
25688;DHT22;17407;51.120;3.702;2024-01-15T19:43:01;4.50;99.90
25688;DHT22;17407;51.120;3.702;2024-01-15T19:45:27;4.50;99.90
25688;DHT22;17407;51.120;3.702;2024-01-15T19:47:53;4.60;99.90
25688;DHT22;17407;51.120;3.702;2024-01-15T19:50:18;4.70;99.90
25688;DHT22;17407;51.120;3.702;2024-01-15T19:52:44;4.50;99.90
25688;DHT22;17407;51.120;3.702;2024-01-15T19:55:10;4.50;99.90
25688;DHT22;17407;51.120;3.702;2024-01-15T19:57:35;4.50;99.90
25688;DHT22;17407;51.120;3.702;2024-01-15T20:00:01;4.70;99.90
25688;DHT22;17407;51.120;3.702;2024-01-15T20:02:27;4.50;99.90
25688;DHT22;17407;51.120;3.702;2024-01-15T20:04:52;4.60;99.90
25688;DHT22;17407;51.120;3.702;2024-01-15T20:07:18;4.40;99.90